Terminal Aerodrome Forecast
Issued by NWS Upton, NY

Home | Current Version | Previous Version | Text Only | Print | Product List | Glossary On
Versions: 1 2 3 4 5 6 7 8 9 10 11 12 13 14 15 16 17 18 19 20 21 22 23
000
FTUS41 KOKX 220500
TAFBDR
TAF
KBDR 220531Z 2206/2306 23004KT P6SM FEW100 SCT250
     FM221200 25006KT P6SM FEW050 SCT100
     FM221500 21008KT P6SM FEW050 SCT100
     FM221700 20010KT P6SM FEW050 SCT100
     FM222000 19013KT P6SM FEW050 SCT100
     FM230200 22007KT P6SM FEW050=

USA.gov is the U.S. government's official web portal to all federal, state and local government web resources and services.